createdAt,value
2018-03-08T00:04:43.408Z,4.5
2018-03-08T00:09:43.056Z,4.5
2018-03-08T00:14:43.374Z,4.4
2018-03-08T00:19:43.055Z,4.4
2018-03-08T00:24:43.113Z,4.2
2018-03-08T00:29:43.052Z,4.1
2018-03-08T00:34:43.190Z,4.1
2018-03-08T00:39:43.225Z,4.1
2018-03-08T00:44:43.082Z,3.8
2018-03-08T00:49:43.196Z,3.8
2018-03-08T00:54:43.150Z,3.7
2018-03-08T00:59:43.211Z,3.7
2018-03-08T01:04:43.260Z,3.6
2018-03-08T01:09:43.048Z,3.6
2018-03-08T01:14:43.351Z,3.6
2018-03-08T01:19:43.007Z,3.5
2018-03-08T01:24:43.219Z,3.4
2018-03-08T01:29:43.075Z,3.3
2018-03-08T01:34:43.008Z,3.2
2018-03-08T01:39:42.911Z,3.1
2018-03-08T01:44:43.052Z,3.1
2018-03-08T01:49:43.058Z,3.1
2018-03-08T01:54:43.046Z,3
2018-03-08T01:59:43.057Z,3
2018-03-08T02:04:42.966Z,2.9
2018-03-08T02:09:42.979Z,2.8
2018-03-08T02:14:42.958Z,2.8
2018-03-08T02:19:43.013Z,2.9
2018-03-08T02:24:42.955Z,2.8
2018-03-08T02:29:42.797Z,2.7
2018-03-08T02:34:42.859Z,2.7
2018-03-08T02:39:42.959Z,2.7
2018-03-08T02:44:42.897Z,2.6
2018-03-08T02:49:42.790Z,2.6
2018-03-08T02:54:42.934Z,2.6
2018-03-08T02:59:43.010Z,2.6
2018-03-08T03:04:42.889Z,2.5
2018-03-08T03:09:43.055Z,2.5
2018-03-08T03:14:43.135Z,2.4
2018-03-08T03:19:42.959Z,2.4
2018-03-08T03:24:43.139Z,2.4
2018-03-08T03:29:43.126Z,2.4
2018-03-08T03:34:42.973Z,2.3
2018-03-08T03:39:43.071Z,2.3
2018-03-08T03:44:43.100Z,2.3
2018-03-08T03:49:42.780Z,2.3
2018-03-08T03:54:43.022Z,2.3
2018-03-08T03:59:42.878Z,2.2
2018-03-08T04:04:43.003Z,2.2
2018-03-08T04:09:42.928Z,2.2
2018-03-08T04:14:42.660Z,2.2
2018-03-08T04:19:43.004Z,2.2
2018-03-08T04:24:42.636Z,2.2
2018-03-08T04:29:42.694Z,2.2
2018-03-08T04:34:42.784Z,2.2
2018-03-08T04:39:42.915Z,2.1
2018-03-08T04:44:42.827Z,2.1
2018-03-08T04:49:42.748Z,2.1
2018-03-08T04:54:42.784Z,2.1
2018-03-08T04:59:43.126Z,2.1
2018-03-08T05:04:42.751Z,2.1
2018-03-08T05:09:42.868Z,2.1
2018-03-08T05:14:42.641Z,2.1
2018-03-08T05:19:42.633Z,2.1
2018-03-08T05:24:42.762Z,2
2018-03-08T05:29:42.686Z,2
2018-03-08T05:34:42.931Z,2
2018-03-08T05:39:42.690Z,2
2018-03-08T05:44:42.529Z,1.9
2018-03-08T05:49:42.595Z,1.9
2018-03-08T05:54:42.833Z,2
2018-03-08T05:59:42.505Z,2
2018-03-08T06:04:42.759Z,2
2018-03-08T06:09:42.587Z,2
2018-03-08T06:14:42.830Z,2.1
2018-03-08T06:19:42.525Z,2.3
2018-03-08T06:24:42.818Z,2.4
2018-03-08T06:29:42.661Z,2.4
2018-03-08T06:34:42.672Z,2.5
2018-03-08T06:39:42.722Z,2.5
2018-03-08T06:44:42.529Z,2.4
2018-03-08T06:49:42.786Z,2.4
2018-03-08T06:54:42.548Z,2.3
2018-03-08T06:59:42.659Z,2.4
2018-03-08T07:04:42.515Z,2.6
2018-03-08T07:09:42.532Z,2.6
2018-03-08T07:14:42.545Z,2.6
2018-03-08T07:19:42.808Z,2.7
2018-03-08T07:24:42.706Z,2.7
2018-03-08T07:29:42.437Z,2.8
2018-03-08T07:34:42.553Z,2.8
2018-03-08T07:39:42.718Z,3
2018-03-08T07:44:42.594Z,3.2
2018-03-08T07:49:42.395Z,3.4
2018-03-08T07:54:42.443Z,3.4
2018-03-08T07:59:42.569Z,3.6
2018-03-08T08:04:42.491Z,3.6
2018-03-08T08:09:42.647Z,3.9
2018-03-08T08:14:42.583Z,4
2018-03-08T08:19:42.499Z,4.2
2018-03-08T08:24:42.405Z,4.4
2018-03-08T08:29:42.331Z,4.6
2018-03-08T08:34:42.392Z,4.6
2018-03-08T08:39:42.507Z,4.7
2018-03-08T08:44:42.259Z,4.8
2018-03-08T08:49:42.364Z,4.9
2018-03-08T08:54:42.370Z,5
2018-03-08T08:59:42.496Z,5
2018-03-08T09:04:42.429Z,5
2018-03-08T09:09:42.557Z,5.1
2018-03-08T09:14:42.482Z,5.1
2018-03-08T09:19:42.265Z,5.1
2018-03-08T09:24:42.436Z,5.1
2018-03-08T09:29:42.344Z,5.1
2018-03-08T09:34:42.319Z,5.1
2018-03-08T09:39:42.212Z,5.1
2018-03-08T09:44:42.441Z,5.2
2018-03-08T09:49:42.137Z,5.3
2018-03-08T09:54:42.461Z,5.3
2018-03-08T09:59:42.595Z,5.3
2018-03-08T10:04:42.118Z,5.3
2018-03-08T10:09:42.177Z,5.3
2018-03-08T10:14:42.281Z,5.2
2018-03-08T10:19:42.510Z,5.1
2018-03-08T10:24:42.475Z,5.1
2018-03-08T10:29:42.306Z,5.1
2018-03-08T10:34:42.535Z,5.1
2018-03-08T10:39:42.312Z,5.2
2018-03-08T10:44:42.306Z,5.2
2018-03-08T10:49:42.329Z,5.2
2018-03-08T10:54:42.125Z,5.2
2018-03-08T10:59:42.058Z,5.2
2018-03-08T11:04:42.184Z,5.3
2018-03-08T11:09:42.137Z,5.3
2018-03-08T11:14:42.009Z,5.3
2018-03-08T11:19:42.387Z,5.4
2018-03-08T11:24:42.189Z,5.4
2018-03-08T11:29:42.067Z,5.4
2018-03-08T11:34:42.509Z,5.6
2018-03-08T11:39:42.187Z,5.6
2018-03-08T11:44:42.026Z,5.6
2018-03-08T11:49:42.035Z,5.6
2018-03-08T11:54:42.049Z,5.6
2018-03-08T11:59:42.108Z,5.7
2018-03-08T12:04:42.083Z,5.8
2018-03-08T12:09:41.977Z,5.9
2018-03-08T12:14:42.187Z,6
2018-03-08T12:19:42.342Z,6.2
2018-03-08T12:24:42.305Z,6.3
2018-03-08T12:29:42.200Z,6.4
2018-03-08T12:34:42.177Z,6.3
2018-03-08T12:39:42.008Z,6
2018-03-08T12:44:41.999Z,6
2018-03-08T12:49:41.945Z,5.8
2018-03-08T12:54:42.159Z,5.7
2018-03-08T12:59:42.219Z,5.7
2018-03-08T13:04:41.868Z,5.8
2018-03-08T13:09:42.115Z,5.6
2018-03-08T13:14:42.039Z,5.6
2018-03-08T13:19:42.243Z,6.2
2018-03-08T13:24:42.071Z,6.2
2018-03-08T13:29:42.185Z,6.1
2018-03-08T13:34:42.391Z,6.5
2018-03-08T13:39:41.917Z,7.1
2018-03-08T13:44:42.122Z,7.3
2018-03-08T13:49:41.828Z,7.4
2018-03-08T13:54:42.227Z,7.4
2018-03-08T13:59:41.817Z,7.7
2018-03-08T14:04:41.846Z,7.6
2018-03-08T14:09:42.071Z,7.5
2018-03-08T14:14:42.103Z,7.5
2018-03-08T14:19:41.868Z,7.6
2018-03-08T14:24:42.922Z,7.7
2018-03-08T14:29:41.762Z,7.8
2018-03-08T14:34:41.928Z,8
2018-03-08T14:39:41.894Z,7.8
2018-03-08T14:44:42.070Z,7.8
2018-03-08T14:49:41.961Z,8
2018-03-08T14:54:41.736Z,8
2018-03-08T14:59:41.951Z,7.8
2018-03-08T15:04:42.119Z,7.8
2018-03-08T15:09:42.010Z,7.6
2018-03-08T15:14:42.119Z,7.6
2018-03-08T15:19:41.835Z,7.6
2018-03-08T15:24:41.893Z,7.7
2018-03-08T15:29:41.910Z,7.6
2018-03-08T15:34:41.826Z,7.5
2018-03-08T15:39:41.741Z,7.5
2018-03-08T15:44:41.820Z,7.5
2018-03-08T15:49:42.067Z,7.5
2018-03-08T15:54:41.902Z,7.5
2018-03-08T15:59:41.775Z,7.3
2018-03-08T16:04:41.708Z,7.3
2018-03-08T16:09:41.758Z,7.3
2018-03-08T16:14:41.947Z,7.3
2018-03-08T16:19:42.098Z,7.3
2018-03-08T16:24:42.025Z,7.1
2018-03-08T16:29:41.788Z,7.1
2018-03-08T16:34:41.924Z,7.1
2018-03-08T16:39:41.743Z,7.1
2018-03-08T16:44:41.816Z,7
2018-03-08T16:49:41.893Z,7
2018-03-08T16:54:41.919Z,7
2018-03-08T16:59:41.607Z,7
2018-03-08T17:04:41.919Z,7
2018-03-08T17:09:41.937Z,7
2018-03-08T17:14:41.902Z,7
2018-03-08T17:19:41.761Z,7
2018-03-08T17:24:41.704Z,7
2018-03-08T17:29:41.846Z,7
2018-03-08T17:34:41.553Z,7
2018-03-08T17:39:41.654Z,7
2018-03-08T17:44:41.676Z,7
2018-03-08T17:49:41.648Z,7
2018-03-08T17:54:41.577Z,7
2018-03-08T17:59:41.842Z,7
2018-03-08T18:04:41.617Z,7
2018-03-08T18:09:41.684Z,7
2018-03-08T18:14:41.801Z,7
2018-03-08T18:19:41.660Z,7
2018-03-08T18:24:41.860Z,7
2018-03-08T18:29:41.484Z,7
2018-03-08T18:34:41.482Z,7
2018-03-08T18:39:41.951Z,5.6
2018-03-08T18:44:41.644Z,5.6
2018-03-08T18:49:41.390Z,5.6
2018-03-08T18:54:41.490Z,5.6
2018-03-08T18:59:41.636Z,5.6
2018-03-08T19:04:41.553Z,5.6
2018-03-08T19:09:41.422Z,5.6
2018-03-08T19:14:41.835Z,5.4
2018-03-08T19:19:41.499Z,5.5
2018-03-08T19:24:41.443Z,5.5
2018-03-08T19:29:41.538Z,5.5
2018-03-08T19:34:41.898Z,5.5
2018-03-08T19:39:41.541Z,5.5
2018-03-08T19:44:41.878Z,5.5
2018-03-08T19:49:41.485Z,5.5
2018-03-08T19:54:41.299Z,5.1
2018-03-08T19:59:41.690Z,5.1
2018-03-08T20:04:41.257Z,4.6
2018-03-08T20:09:41.643Z,4.4
2018-03-08T20:14:42.506Z,4.3
2018-03-08T20:19:41.462Z,4.3
2018-03-08T20:24:41.588Z,4.1
2018-03-08T20:29:41.409Z,4
2018-03-08T20:34:41.593Z,3.9
2018-03-08T20:39:41.428Z,3.8
2018-03-08T20:44:41.361Z,3.7
2018-03-08T20:49:41.353Z,3.7
2018-03-08T20:54:41.203Z,3.6
2018-03-08T20:59:41.798Z,3.6
2018-03-08T21:04:41.204Z,3.6
2018-03-08T21:09:41.586Z,3.5
2018-03-08T21:14:41.520Z,3.5
2018-03-08T21:19:41.454Z,3.4
2018-03-08T21:24:41.447Z,3.4
2018-03-08T21:29:41.453Z,3.4
2018-03-08T21:34:41.234Z,3.4
2018-03-08T21:39:41.241Z,3.4
2018-03-08T21:44:41.384Z,3.4
2018-03-08T21:49:41.475Z,3.4
2018-03-08T21:54:41.692Z,3.4
2018-03-08T21:59:41.173Z,3.4
2018-03-08T22:04:41.183Z,3.4
2018-03-08T22:09:41.382Z,3.4
2018-03-08T22:14:41.511Z,3.4
2018-03-08T22:19:41.577Z,3.4
2018-03-08T22:24:41.489Z,3.2
2018-03-08T22:29:41.369Z,3.2
2018-03-08T22:34:41.161Z,3.2
2018-03-08T22:39:41.497Z,3.2
2018-03-08T22:44:41.348Z,3.2
2018-03-08T22:49:41.327Z,3.2
2018-03-08T22:54:41.314Z,3.2
2018-03-08T22:59:41.129Z,3.2
2018-03-08T23:04:41.823Z,3.2
2018-03-08T23:09:41.393Z,3.2
2018-03-08T23:14:41.072Z,3.2
2018-03-08T23:19:41.308Z,3.2
2018-03-08T23:24:41.282Z,3.2
2018-03-08T23:29:41.374Z,3.2
2018-03-08T23:34:41.261Z,3.2
2018-03-08T23:39:41.299Z,3.2
2018-03-08T23:44:41.181Z,3.2
2018-03-08T23:49:41.139Z,3.2
2018-03-08T23:54:41.295Z,3.2
2018-03-08T23:59:41.360Z,3.2
